createdAt,value
2022-10-19T00:00:02.826Z,2.70
2022-10-19T00:03:52.141Z,3.17
2022-10-19T00:07:50.408Z,3.27
2022-10-19T00:11:43.194Z,2.70
2022-10-19T00:15:34.236Z,2.97
2022-10-19T00:20:05.287Z,2.30
2022-10-19T00:27:34.669Z,3.23
2022-10-19T00:31:21.270Z,2.57
2022-10-19T00:35:36.759Z,2.87
2022-10-19T00:39:45.574Z,2.63
2022-10-19T00:43:54.740Z,3.30
2022-10-19T00:56:47.077Z,3.20
2022-10-19T01:00:49.414Z,3.23
2022-10-19T01:17:04.427Z,3.43
2022-10-19T01:21:33.619Z,3.43
2022-10-19T01:25:59.063Z,3.33
2022-10-19T01:34:08.791Z,2.90
2022-10-19T01:56:08.375Z,3.07
2022-10-19T01:59:51.210Z,3.60
2022-10-19T02:03:39.875Z,3.03
2022-10-19T02:07:30.767Z,2.87
2022-10-19T02:11:36.638Z,3.23
2022-10-19T02:23:40.652Z,3.40
2022-10-19T02:35:34.519Z,3.40
2022-10-19T02:39:30.329Z,3.70
2022-10-19T02:43:30.662Z,4.05
2022-10-19T02:48:12.856Z,2.97
2022-10-19T02:52:24.867Z,3.13
2022-10-19T03:12:10.603Z,3.80
2022-10-19T03:16:00.830Z,2.60
2022-10-19T03:19:58.869Z,2.90
2022-10-19T03:23:51.906Z,2.80
2022-10-19T03:27:44.896Z,4.37
2022-10-19T03:31:42.905Z,4.07
2022-10-19T03:35:25.485Z,3.93
2022-10-19T03:39:21.264Z,3.00
2022-10-19T04:02:41.883Z,2.30
2022-10-19T04:07:00.850Z,3.67
2022-10-19T04:11:02.147Z,2.67
2022-10-19T04:14:56.911Z,2.60
2022-10-19T04:18:56.303Z,2.57
2022-10-19T04:22:43.718Z,2.83
2022-10-19T04:26:30.102Z,3.37
2022-10-19T04:30:20.836Z,2.60
2022-10-19T04:35:00.633Z,2.93
2022-10-19T04:38:50.338Z,3.07
2022-10-19T04:42:50.030Z,2.67
2022-10-19T04:50:36.028Z,3.00
2022-10-19T04:54:27.464Z,2.90
2022-10-19T04:58:25.994Z,3.63
2022-10-19T05:02:22.178Z,3.00
2022-10-19T05:10:15.211Z,4.32
2022-10-19T05:14:35.835Z,3.27
2022-10-19T05:18:31.672Z,3.53
2022-10-19T05:22:25.333Z,3.60
2022-10-19T05:26:19.947Z,3.40
2022-10-19T05:30:48.986Z,3.10
2022-10-19T05:34:35.539Z,3.13
2022-10-19T05:42:20.144Z,4.50
2022-10-19T05:54:58.593Z,3.70
2022-10-19T05:58:56.879Z,3.93
2022-10-19T06:06:52.309Z,6.63
2022-10-19T06:10:46.851Z,6.20
2022-10-19T06:14:39.515Z,7.10
2022-10-19T06:18:32.703Z,5.70
2022-10-19T06:22:19.017Z,6.53
2022-10-19T06:30:09.180Z,4.97
2022-10-19T06:34:17.825Z,4.87
2022-10-19T06:38:11.500Z,5.47
2022-10-19T06:42:02.039Z,4.33
2022-10-19T06:50:25.309Z,4.77
2022-10-19T06:54:26.128Z,4.13
2022-10-19T06:58:09.286Z,5.57
2022-10-19T07:01:59.449Z,7.37
2022-10-19T07:05:47.064Z,5.00
2022-10-19T07:09:41.773Z,4.80
2022-10-19T07:13:28.987Z,5.17
2022-10-19T07:17:14.870Z,5.75
2022-10-19T07:21:25.490Z,5.90
2022-10-19T07:25:08.095Z,5.60
2022-10-19T07:28:51.198Z,5.67
2022-10-19T07:32:33.036Z,7.07
2022-10-19T07:36:14.995Z,6.93
2022-10-19T07:39:56.918Z,7.90
2022-10-19T07:43:43.808Z,6.97
2022-10-19T07:47:25.649Z,6.80
2022-10-19T07:51:09.458Z,7.77
2022-10-19T07:54:52.722Z,5.70
2022-10-19T07:58:36.485Z,6.30
2022-10-19T08:02:20.230Z,8.63
2022-10-19T08:06:10.385Z,5.17
2022-10-19T08:09:53.835Z,10.97
2022-10-19T08:13:36.470Z,8.87
2022-10-19T08:17:18.481Z,6.07
2022-10-19T08:21:03.285Z,6.37
2022-10-19T08:24:45.469Z,14.03
2022-10-19T08:28:29.102Z,10.15
2022-10-19T08:32:11.545Z,12.80
2022-10-19T08:35:56.781Z,10.07
2022-10-19T08:39:39.411Z,8.17
2022-10-19T08:43:34.554Z,8.35
2022-10-19T08:47:44.906Z,6.45
2022-10-19T08:51:28.492Z,6.00
2022-10-19T08:55:23.363Z,4.72
2022-10-19T08:59:30.486Z,5.43
2022-10-19T09:03:43.872Z,4.65
2022-10-19T09:07:45.600Z,10.85
2022-10-19T09:11:37.294Z,6.30
2022-10-19T09:15:34.851Z,4.13
2022-10-19T09:19:26.385Z,3.97
2022-10-19T09:23:31.581Z,5.93
2022-10-19T09:27:24.493Z,3.80
2022-10-19T09:31:11.284Z,4.53
2022-10-19T09:35:05.218Z,4.00
2022-10-19T09:38:53.155Z,3.47
2022-10-19T09:42:37.187Z,3.45
2022-10-19T09:46:58.098Z,3.92
2022-10-19T09:50:45.818Z,4.13
2022-10-19T09:54:40.389Z,4.55
2022-10-19T09:58:33.047Z,3.45
2022-10-19T10:02:20.004Z,3.50
2022-10-19T10:06:13.631Z,3.20
2022-10-19T10:09:55.598Z,3.67
2022-10-19T10:13:50.818Z,3.78
2022-10-19T10:17:34.050Z,3.17
2022-10-19T10:21:32.356Z,3.22
2022-10-19T10:25:18.838Z,3.50
2022-10-19T10:29:01.681Z,4.13
2022-10-19T10:32:51.674Z,3.95
2022-10-19T10:36:35.846Z,3.30
2022-10-19T10:40:23.398Z,3.20
2022-10-19T10:44:20.896Z,3.78
2022-10-19T10:48:18.409Z,4.30
2022-10-19T10:52:22.099Z,4.00
2022-10-19T10:56:23.772Z,3.97
2022-10-19T11:00:25.850Z,4.00
2022-10-19T11:04:20.955Z,3.53
2022-10-19T11:08:35.861Z,3.90
2022-10-19T11:12:31.561Z,3.92
2022-10-19T11:16:24.029Z,10.05
2022-10-19T11:20:11.729Z,8.65
2022-10-19T11:24:09.735Z,3.33
2022-10-19T11:28:20.773Z,3.38
2022-10-19T11:32:23.683Z,3.17
2022-10-19T11:36:29.103Z,3.30
2022-10-19T11:40:29.503Z,2.60
2022-10-19T11:44:52.218Z,3.42
2022-10-19T11:49:00.718Z,5.47
2022-10-19T11:52:48.373Z,3.33
2022-10-19T11:57:04.029Z,3.10
2022-10-19T12:01:28.879Z,3.17
2022-10-19T12:05:50.511Z,2.95
2022-10-19T12:10:13.619Z,3.47
2022-10-19T12:14:01.285Z,3.08
2022-10-19T12:17:48.622Z,3.65
2022-10-19T12:21:37.873Z,4.15
2022-10-19T12:25:21.047Z,3.38
2022-10-19T12:29:13.266Z,3.25
2022-10-19T12:33:26.966Z,2.80
2022-10-19T12:37:40.533Z,3.35
2022-10-19T12:41:53.593Z,3.40
2022-10-19T12:45:54.406Z,5.25
2022-10-19T12:49:51.297Z,3.47
2022-10-19T12:53:37.242Z,2.83
2022-10-19T12:57:29.071Z,4.28
2022-10-19T13:01:35.268Z,3.35
2022-10-19T13:05:23.279Z,3.08
2022-10-19T13:09:16.315Z,3.72
2022-10-19T13:12:58.736Z,3.13
2022-10-19T13:16:56.479Z,2.92
2022-10-19T13:20:38.317Z,4.45
2022-10-19T13:24:26.575Z,3.63
2022-10-19T13:28:13.157Z,3.50
2022-10-19T13:32:36.186Z,3.45
2022-10-19T13:36:19.830Z,3.90
2022-10-19T13:40:26.730Z,3.22
2022-10-19T13:44:15.455Z,3.15
2022-10-19T13:48:10.804Z,3.72
2022-10-19T13:52:20.507Z,3.63
2022-10-19T13:56:21.161Z,2.72
2022-10-19T14:00:18.243Z,3.63
2022-10-19T14:04:25.318Z,2.85
2022-10-19T14:08:19.430Z,2.45
2022-10-19T14:12:25.110Z,2.53
2022-10-19T14:16:17.199Z,2.25
2022-10-19T14:20:01.006Z,2.97
2022-10-19T14:23:43.179Z,2.35
2022-10-19T14:27:25.258Z,3.25
2022-10-19T14:31:17.705Z,2.50
2022-10-19T14:35:16.272Z,2.35
2022-10-19T14:38:59.652Z,2.45
2022-10-19T14:42:46.320Z,2.40
2022-10-19T14:46:34.092Z,2.95
2022-10-19T14:50:16.303Z,2.22
2022-10-19T14:54:47.850Z,2.70
2022-10-19T14:58:37.755Z,2.38
2022-10-19T15:02:37.447Z,1.95
2022-10-19T15:06:24.224Z,2.38
2022-10-19T15:10:31.238Z,2.58
2022-10-19T15:14:27.052Z,2.70
2022-10-19T15:18:43.426Z,2.72
2022-10-19T15:22:32.297Z,2.83
2022-10-19T15:26:28.779Z,2.70
2022-10-19T15:30:22.456Z,3.13
2022-10-19T15:34:05.462Z,3.65
2022-10-19T15:37:49.475Z,3.35
2022-10-19T15:41:37.021Z,3.13
2022-10-19T15:45:37.452Z,2.90
2022-10-19T15:49:19.320Z,3.03
2022-10-19T15:53:01.446Z,2.75
2022-10-19T15:56:46.058Z,3.47
2022-10-19T16:00:29.446Z,3.25
2022-10-19T16:04:11.933Z,3.13
2022-10-19T16:07:54.555Z,3.15
2022-10-19T16:11:36.687Z,3.25
2022-10-19T16:15:24.326Z,3.50
2022-10-19T16:19:06.193Z,2.90
2022-10-19T16:22:49.043Z,3.10
2022-10-19T16:26:32.692Z,3.75
2022-10-19T16:30:14.732Z,4.00
2022-10-19T16:33:57.361Z,3.40
2022-10-19T16:37:39.369Z,4.15
2022-10-19T16:41:21.296Z,3.25
2022-10-19T16:45:03.601Z,3.63
2022-10-19T16:48:48.072Z,3.63
2022-10-19T16:52:32.262Z,3.40
2022-10-19T16:56:14.323Z,2.97
2022-10-19T16:59:56.248Z,3.60
2022-10-19T17:03:38.348Z,3.08
2022-10-19T17:07:20.251Z,4.20
2022-10-19T17:11:17.871Z,3.63
2022-10-19T17:15:29.948Z,5.18
2022-10-19T17:19:03.392Z,4.82
2022-10-19T17:22:45.239Z,3.33
2022-10-19T17:26:38.944Z,3.08
2022-10-19T17:30:20.798Z,3.95
2022-10-19T17:34:03.442Z,8.60
2022-10-19T17:37:45.248Z,4.32
2022-10-19T17:41:28.419Z,4.35
2022-10-19T17:45:11.177Z,4.18
2022-10-19T17:48:53.504Z,4.60
2022-10-19T17:52:35.404Z,5.05
2022-10-19T17:56:19.378Z,3.42
2022-10-19T18:00:01.442Z,4.90
2022-10-19T18:03:43.509Z,4.50
2022-10-19T18:07:26.251Z,12.77
2022-10-19T18:11:17.001Z,5.25
2022-10-19T18:14:59.135Z,4.97
2022-10-19T18:18:44.109Z,5.78
2022-10-19T18:22:26.012Z,5.78
2022-10-19T18:26:11.540Z,5.45
2022-10-19T18:29:53.510Z,5.03
2022-10-19T18:33:35.760Z,5.28
2022-10-19T18:37:17.704Z,5.53
2022-10-19T18:44:54.382Z,6.00
2022-10-19T18:48:38.116Z,6.00
2022-10-19T18:52:19.965Z,6.18
2022-10-19T18:56:07.882Z,6.30
2022-10-19T18:59:49.952Z,5.55
2022-10-19T19:03:32.196Z,6.18
2022-10-19T19:07:14.060Z,8.70
2022-10-19T19:10:56.796Z,6.78
2022-10-19T19:14:39.088Z,6.47
2022-10-19T19:18:21.078Z,6.47
2022-10-19T19:22:07.878Z,6.13
2022-10-19T19:25:50.841Z,7.07
2022-10-19T19:29:32.908Z,7.43
2022-10-19T19:33:14.982Z,7.03
2022-10-19T19:36:56.845Z,6.90
2022-10-19T19:40:43.860Z,6.30
2022-10-19T19:44:29.600Z,7.18
2022-10-19T19:48:11.577Z,7.70
2022-10-19T19:51:54.407Z,8.05
2022-10-19T19:55:38.963Z,7.45
2022-10-19T19:59:21.366Z,7.35
2022-10-19T20:03:03.636Z,8.13
2022-10-19T20:06:45.531Z,7.78
2022-10-19T20:10:27.564Z,7.72
2022-10-19T20:14:09.716Z,7.70
2022-10-19T20:17:51.654Z,8.18
2022-10-19T20:21:33.955Z,8.68
2022-10-19T20:25:16.002Z,10.35
2022-10-19T20:28:58.810Z,9.93
2022-10-19T20:32:40.799Z,8.82
2022-10-19T20:36:25.149Z,9.68
2022-10-19T20:40:08.929Z,8.10
2022-10-19T20:43:52.174Z,30.90
2022-10-19T20:47:34.098Z,18.45
2022-10-19T20:51:15.987Z,28.88
2022-10-19T20:54:57.972Z,28.17
2022-10-19T20:58:42.576Z,9.68
2022-10-19T21:02:24.654Z,10.82
2022-10-19T21:06:08.841Z,8.85
2022-10-19T21:09:50.733Z,10.07
2022-10-19T21:13:32.595Z,10.45
2022-10-19T21:17:14.459Z,10.80
2022-10-19T21:20:56.308Z,11.82
2022-10-19T21:24:39.834Z,11.77
2022-10-19T21:28:21.813Z,19.58
2022-10-19T21:32:04.194Z,13.30
2022-10-19T21:35:46.153Z,15.00
2022-10-19T21:39:28.304Z,13.38
2022-10-19T21:43:11.457Z,20.52
2022-10-19T21:46:53.490Z,15.85
2022-10-19T21:50:35.373Z,13.40
2022-10-19T21:54:20.396Z,12.15
2022-10-19T21:58:03.666Z,14.20
2022-10-19T22:01:45.716Z,14.57
2022-10-19T22:05:27.690Z,12.52
2022-10-19T22:09:13.180Z,13.25
2022-10-19T22:12:56.347Z,12.85
2022-10-19T22:16:39.445Z,11.27
2022-10-19T22:20:21.439Z,11.73
2022-10-19T22:24:06.783Z,18.58
2022-10-19T22:27:48.923Z,12.52
2022-10-19T22:31:32.104Z,15.68
2022-10-19T22:35:14.278Z,13.38
2022-10-19T22:38:56.450Z,14.90
2022-10-19T22:42:38.782Z,13.45
2022-10-19T22:46:20.949Z,12.95
2022-10-19T22:50:02.901Z,17.77
2022-10-19T22:53:44.793Z,12.82
2022-10-19T22:57:26.635Z,26.85
2022-10-19T23:01:12.126Z,14.52
2022-10-19T23:04:54.041Z,13.13
2022-10-19T23:08:36.088Z,27.92
2022-10-19T23:12:18.114Z,37.42
2022-10-19T23:16:00.065Z,15.95
2022-10-19T23:19:42.015Z,11.23
2022-10-19T23:23:24.867Z,10.85
2022-10-19T23:27:06.899Z,11.35
2022-10-19T23:30:50.334Z,11.70
2022-10-19T23:34:32.495Z,10.15
2022-10-19T23:38:14.732Z,9.75
2022-10-19T23:41:56.574Z,11.88
2022-10-19T23:45:39.553Z,11.23
2022-10-19T23:49:21.438Z,10.88
2022-10-19T23:53:03.344Z,9.77
2022-10-19T23:56:45.217Z,9.63
